»·PEaware :: CGMWT KSBP-KBUR

CGMWT :: KSBP-KBUR

FLIGHT INFORMATION

Flight Status: Arrived
Operator: Unknown
More flights by this operator :: More flights under this callsign
Pilot: Konrad W. (32064)
Aircraft: Diamond DA-40
(DA40)
More flights by this aircraft type
Origin: KSBP San Luis Co Regl
United States
Destination: KBUR Bob Hope-Burbank
United States
More flights between these airports :: More routes between these airports
Route: FLW FIM
File this flight plan on PilotEdge
Remarks:
Altitude:
(Current/Filed)
5,500ft
Speed:
(Current/Filed)
150kts
Departed: 17-Nov-20 04:47 PM
Arrived: 17-Nov-20 06:03 PM
Distance/Time
Traveled:
128nm/1:16
Distance/Time
To Go:
Arrived

Flight Plot

Page will automatically refresh every two minutes.

Flight plan parsing failed; only flown route is shown


Map Options




Map Legend


Flown Route
Filed Route
Departure Airport
Arrival Airport
Navaid (VOR, NDB)
Fix

Horizontal Profiles

Position Reports

Time Latitude Longitude Heading Altitude Ground
Speed
17-Nov-20 16:38 35.236542 -120.636755 33 203ft 0kts
17-Nov-20 16:39 35.236542 -120.636755 33 203ft 0kts
17-Nov-20 16:40 35.236542 -120.636755 33 203ft 0kts
17-Nov-20 16:41 35.236542 -120.636755 33 203ft 0kts
17-Nov-20 16:42 35.236542 -120.636755 33 203ft 0kts
17-Nov-20 16:43 35.235616 -120.636067 135 206ft 11kts
17-Nov-20 16:44 35.233208 -120.632446 212 219ft 0kts
17-Nov-20 16:45 35.233262 -120.633905 306 213ft 27kts
17-Nov-20 16:46 35.245404 -120.655219 311 624ft 90kts
17-Nov-20 16:47 35.268864 -120.657216 359 1494ft 80kts
17-Nov-20 16:48 35.269373 -120.645687 151 2257ft 63kts
17-Nov-20 16:49 35.260105 -120.626685 111 2775ft 84kts
17-Nov-20 16:50 35.252570 -120.592914 111 3281ft 114kts
17-Nov-20 16:51 35.244474 -120.556098 113 3752ft 111kts
17-Nov-20 16:52 35.236700 -120.520595 114 4223ft 104kts
17-Nov-20 16:53 35.229122 -120.486077 116 5009ft 107kts
17-Nov-20 16:54 35.221748 -120.452473 119 5480ft 101kts
17-Nov-20 16:55 35.213848 -120.416268 117 5541ft 115kts
17-Nov-20 16:56 35.205231 -120.376914 116 5533ft 121kts
17-Nov-20 16:57 35.196652 -120.337808 115 5547ft 117kts
17-Nov-20 16:58 35.188337 -120.299809 116 5514ft 113kts
17-Nov-20 16:59 35.180285 -120.263110 115 5543ft 112kts
17-Nov-20 17:00 35.172014 -120.225303 114 5565ft 121kts
17-Nov-20 17:01 35.163488 -120.186376 113 5512ft 118kts
17-Nov-20 17:02 35.155069 -120.148028 113 5491ft 115kts
17-Nov-20 17:03 35.146543 -120.109173 112 5497ft 121kts
17-Nov-20 17:04 35.137829 -120.069499 112 5502ft 121kts
17-Nov-20 17:05 35.128915 -120.028748 111 5513ft 126kts
17-Nov-20 17:06 35.119807 -119.987340 110 5490ft 125kts
17-Nov-20 17:07 35.110990 -119.947131 111 5482ft 119kts
17-Nov-20 17:08 35.102388 -119.907943 110 5503ft 119kts
17-Nov-20 17:09 35.089055 -119.871151 119 5506ft 119kts
17-Nov-20 17:10 35.075214 -119.834606 119 5504ft 117kts
17-Nov-20 17:11 35.049278 -119.812896 153 5512ft 115kts
17-Nov-20 17:12 35.024602 -119.796018 153 6305ft 96kts
17-Nov-20 17:13 35.002042 -119.779266 153 7128ft 92kts
17-Nov-20 17:14 34.977507 -119.766745 151 7483ft 110kts
17-Nov-20 17:15 34.951188 -119.744461 149 7496ft 118kts
17-Nov-20 17:16 34.926480 -119.723490 151 7990ft 100kts
17-Nov-20 17:17 34.904512 -119.704833 152 8591ft 94kts
17-Nov-20 17:18 34.883069 -119.686609 153 9157ft 93kts
17-Nov-20 17:19 34.860757 -119.667660 152 9486ft 108kts
17-Nov-20 17:20 34.836155 -119.646764 152 9487ft 107kts
17-Nov-20 17:21 34.811336 -119.625705 152 9477ft 108kts
17-Nov-20 17:22 34.785674 -119.603933 150 9485ft 116kts
17-Nov-20 17:23 34.759933 -119.582069 151 9385ft 105kts
17-Nov-20 17:24 34.735729 -119.561626 152 9462ft 107kts
17-Nov-20 17:25 34.710932 -119.540605 151 9522ft 111kts
17-Nov-20 17:26 34.684204 -119.517991 151 9521ft 119kts
17-Nov-20 17:27 34.656662 -119.494708 152 9502ft 121kts
17-Nov-20 17:28 34.629618 -119.471849 151 9492ft 116kts
17-Nov-20 17:29 34.603614 -119.449929 150 9499ft 114kts
17-Nov-20 17:30 34.576732 -119.427237 152 9518ft 119kts
17-Nov-20 17:31 34.550557 -119.405135 152 9522ft 115kts
17-Nov-20 17:32 34.523045 -119.381946 152 9515ft 122kts
17-Nov-20 17:33 34.495466 -119.358699 152 9481ft 112kts
17-Nov-20 17:34 34.470412 -119.337603 153 9538ft 115kts
17-Nov-20 17:35 34.461264 -119.295206 117 9551ft 137kts
17-Nov-20 17:36 34.450043 -119.250743 117 9122ft 135kts
17-Nov-20 17:38 34.429454 -119.169298 114 7466ft 122kts
17-Nov-20 17:39 34.419570 -119.130175 111 6473ft 121kts
17-Nov-20 17:40 34.409458 -119.090059 109 5512ft 126kts
17-Nov-20 17:41 34.399228 -119.049614 107 4488ft 124kts
17-Nov-20 17:42 34.389162 -119.009759 107 3623ft 117kts
17-Nov-20 17:43 34.378097 -118.977620 122 3509ft 94kts
17-Nov-20 17:44 34.370982 -118.950365 103 3558ft 79kts
17-Nov-20 17:45 34.365817 -118.925329 104 3603ft 74kts
17-Nov-20 17:46 34.360877 -118.901488 104 3616ft 72kts
17-Nov-20 17:47 34.355343 -118.876290 106 3668ft 102kts
17-Nov-20 17:48 34.346483 -118.839150 117 3590ft 117kts
17-Nov-20 17:49 34.328672 -118.806438 124 3610ft 119kts
17-Nov-20 17:50 34.309928 -118.772469 124 3608ft 122kts
17-Nov-20 17:51 34.291186 -118.738435 124 3610ft 121kts
17-Nov-20 17:52 34.272500 -118.704440 124 3610ft 121kts
17-Nov-20 17:53 34.254321 -118.670447 118 3606ft 119kts
17-Nov-20 17:54 34.239691 -118.634502 116 3618ft 122kts
17-Nov-20 17:55 34.226339 -118.597040 110 3611ft 122kts
17-Nov-20 17:56 34.214821 -118.558487 110 3598ft 122kts
17-Nov-20 17:57 34.203628 -118.518433 104 3082ft 116kts
17-Nov-20 17:58 34.198539 -118.482176 91 2498ft 107kts
17-Nov-20 17:59 34.198855 -118.447374 89 1920ft 99kts
17-Nov-20 18:01 34.198585 -118.414760 91 1514ft 92kts
17-Nov-20 18:02 34.198104 -118.384189 92 1054ft 88kts
17-Nov-20 18:03 34.198697 -118.364511 9 720ft 0kts
17-Nov-20 18:04 34.200170 -118.364082 355 723ft 0kts
17-Nov-20 18:05 34.200170 -118.364082 355 723ft 0kts
17-Nov-20 18:06 34.200170 -118.364082 355 723ft 0kts
17-Nov-20 18:07 34.200170 -118.364082 355 723ft 0kts
17-Nov-20 18:08 34.200170 -118.364082 355 723ft 0kts
17-Nov-20 18:09 34.200170 -118.364082 355 723ft 0kts
17-Nov-20 18:10 34.200170 -118.364082 355 723ft 0kts
17-Nov-20 18:11 34.200170 -118.364082 355 723ft 0kts

Navigation Log

Ident Type
Flight plan parsing failed, navigation log unavailable